createdAt,value
2018-09-12T00:02:14.345Z,13.17
2018-09-12T00:04:43.830Z,13.14
2018-09-12T00:07:12.718Z,12.96
2018-09-12T00:09:41.729Z,13.00
2018-09-12T00:12:10.548Z,12.99
2018-09-12T00:14:39.980Z,12.98
2018-09-12T00:17:08.763Z,12.90
2018-09-12T00:19:37.470Z,12.84
2018-09-12T00:22:06.546Z,12.88
2018-09-12T00:24:35.985Z,12.83
2018-09-12T00:27:04.760Z,12.82
2018-09-12T00:29:34.198Z,12.84
2018-09-12T00:32:03.233Z,12.85
2018-09-12T00:34:32.070Z,12.77
2018-09-12T00:37:01.487Z,12.75
2018-09-12T00:39:30.074Z,12.73
2018-09-12T00:41:58.780Z,12.69
2018-09-12T00:46:40.824Z,12.61
2018-09-12T00:49:10.274Z,12.62
2018-09-12T00:51:38.975Z,12.45
2018-09-12T00:54:08.129Z,12.50
2018-09-12T00:56:36.986Z,12.46
2018-09-12T00:59:05.700Z,12.30
2018-09-12T01:01:35.239Z,12.28
2018-09-12T01:04:04.409Z,12.30
2018-09-12T01:06:33.715Z,12.18
2018-09-12T01:09:03.492Z,12.10
2018-09-12T01:11:32.163Z,12.19
2018-09-12T01:14:01.035Z,12.19
2018-09-12T01:16:29.895Z,12.23
2018-09-12T01:18:58.565Z,12.12
2018-09-12T01:21:27.183Z,12.15
2018-09-12T01:23:56.159Z,12.16
2018-09-12T01:26:25.154Z,12.14
2018-09-12T01:28:54.699Z,12.15
2018-09-12T01:31:23.588Z,12.10
2018-09-12T01:33:53.199Z,11.97
2018-09-12T01:36:22.247Z,11.92
2018-09-12T01:38:51.204Z,11.92
2018-09-12T01:41:20.200Z,11.92
2018-09-12T01:43:49.238Z,11.83
2018-09-12T01:46:18.135Z,11.90
2018-09-12T01:48:46.748Z,11.88
2018-09-12T01:51:15.652Z,11.86
2018-09-12T01:53:44.524Z,11.75
2018-09-12T01:56:13.150Z,11.70
2018-09-12T01:58:42.200Z,11.73
2018-09-12T02:01:11.144Z,11.68
2018-09-12T02:03:39.950Z,11.67
2018-09-12T02:06:08.743Z,11.56
2018-09-12T02:08:37.436Z,11.58
2018-09-12T02:11:06.583Z,11.56
2018-09-12T02:13:35.379Z,11.53
2018-09-12T02:16:04.155Z,11.54
2018-09-12T02:18:33.239Z,11.45
2018-09-12T02:21:02.184Z,11.47
2018-09-12T02:23:30.924Z,11.43
2018-09-12T02:25:59.689Z,11.31
2018-09-12T02:28:28.290Z,11.25
2018-09-12T02:30:57.496Z,11.26
2018-09-12T02:33:26.359Z,11.18
2018-09-12T02:36:00.299Z,11.11
2018-09-12T02:38:29.075Z,11.07
2018-09-12T02:40:58.129Z,11.10
2018-09-12T02:43:27.499Z,11.05
2018-09-12T02:45:56.624Z,11.02
2018-09-12T02:48:25.331Z,11.03
2018-09-12T02:50:54.046Z,10.94
2018-09-12T02:53:23.086Z,10.87
2018-09-12T02:55:51.919Z,10.89
2018-09-12T02:58:22.165Z,10.90
2018-09-12T03:00:51.112Z,10.89
2018-09-12T03:03:19.930Z,10.90
2018-09-12T03:05:49.250Z,10.92
2018-09-12T03:08:18.209Z,10.90
2018-09-12T03:10:46.980Z,10.77
2018-09-12T03:13:16.170Z,10.79
2018-09-12T03:15:45.587Z,10.81
2018-09-12T03:18:14.566Z,10.80
2018-09-12T03:20:43.489Z,10.68
2018-09-12T03:23:12.273Z,10.62
2018-09-12T03:25:41.039Z,10.57
2018-09-12T03:28:09.756Z,10.54
2018-09-12T03:30:38.421Z,10.48
2018-09-12T03:33:07.775Z,10.41
2018-09-12T03:35:36.410Z,10.47
2018-09-12T03:38:05.230Z,10.43
2018-09-12T03:40:33.921Z,10.36
2018-09-12T03:43:02.557Z,10.38
2018-09-12T03:45:31.216Z,10.37
2018-09-12T03:48:00.210Z,10.29
2018-09-12T03:50:28.925Z,10.29
2018-09-12T03:52:57.892Z,10.30
2018-09-12T03:55:26.987Z,10.30
2018-09-12T03:57:55.647Z,10.27
2018-09-12T04:00:24.673Z,10.22
2018-09-12T04:02:54.052Z,10.20
2018-09-12T04:05:23.873Z,10.16
2018-09-12T04:07:53.060Z,10.22
2018-09-12T04:10:21.983Z,10.15
2018-09-12T04:12:50.691Z,10.16
2018-09-12T04:15:19.625Z,10.08
2018-09-12T04:17:48.332Z,10.06
2018-09-12T04:20:17.382Z,10.04
2018-09-12T04:22:46.381Z,9.96
2018-09-12T04:25:15.106Z,9.98
2018-09-12T04:27:44.045Z,9.98
2018-09-12T04:30:13.285Z,9.95
2018-09-12T04:32:42.487Z,9.96
2018-09-12T04:35:11.152Z,9.91
2018-09-12T04:37:39.939Z,9.89
2018-09-12T04:40:09.186Z,9.92
2018-09-12T04:42:38.469Z,9.90
2018-09-12T04:45:07.836Z,9.93
2018-09-12T04:47:36.801Z,9.91
2018-09-12T04:50:05.819Z,9.88
2018-09-12T04:52:34.554Z,9.83
2018-09-12T04:55:03.272Z,9.79
2018-09-12T04:57:32.073Z,9.77
2018-09-12T05:00:01.063Z,9.78
2018-09-12T05:02:29.856Z,9.83
2018-09-12T05:04:58.573Z,9.76
2018-09-12T05:07:27.722Z,9.71
2018-09-12T05:09:56.366Z,9.74
2018-09-12T05:12:25.143Z,9.69
2018-09-12T05:14:54.680Z,9.70
2018-09-12T05:17:23.631Z,9.66
2018-09-12T05:19:52.838Z,9.73
2018-09-12T05:22:21.710Z,9.82
2018-09-12T05:24:51.279Z,9.88
2018-09-12T05:27:20.236Z,9.97
2018-09-12T05:29:49.710Z,10.07
2018-09-12T05:32:18.407Z,10.08
2018-09-12T05:34:47.989Z,10.13
2018-09-12T05:37:16.667Z,10.17
2018-09-12T05:39:45.653Z,10.27
2018-09-12T05:42:14.742Z,10.37
2018-09-12T05:44:43.686Z,10.48
2018-09-12T05:47:12.473Z,10.61
2018-09-12T05:49:41.555Z,10.69
2018-09-12T05:52:11.025Z,10.76
2018-09-12T05:54:39.963Z,10.79
2018-09-12T05:57:08.686Z,10.98
2018-09-12T05:59:37.501Z,11.16
2018-09-12T06:02:07.098Z,11.33
2018-09-12T06:04:35.976Z,11.51
2018-09-12T06:07:05.765Z,11.64
2018-09-12T06:09:34.369Z,11.78
2018-09-12T06:12:03.461Z,11.93
2018-09-12T06:14:32.197Z,12.12
2018-09-12T06:17:01.153Z,12.39
2018-09-12T06:19:30.283Z,12.75
2018-09-12T06:21:59.518Z,13.00
2018-09-12T06:24:29.801Z,13.23
2018-09-12T06:26:58.574Z,13.61
2018-09-12T06:29:28.140Z,14.36
2018-09-12T06:31:57.268Z,14.88
2018-09-12T06:34:26.267Z,15.24
2018-09-12T06:36:54.996Z,15.55
2018-09-12T06:39:23.883Z,15.68
2018-09-12T06:41:52.633Z,15.96
2018-09-12T06:44:21.633Z,16.30
2018-09-12T06:46:51.047Z,16.79
2018-09-12T06:49:19.810Z,18.17
2018-09-12T06:51:48.852Z,19.78
2018-09-12T06:54:17.513Z,21.16
2018-09-12T06:56:46.577Z,22.01
2018-09-12T06:59:15.347Z,23.06
2018-09-12T07:01:44.245Z,23.63
2018-09-12T07:04:13.258Z,24.50
2018-09-12T07:06:42.575Z,25.22
2018-09-12T07:09:11.909Z,25.77
2018-09-12T07:11:41.167Z,26.17
2018-09-12T07:14:10.293Z,26.13
2018-09-12T07:16:39.488Z,26.65
2018-09-12T07:19:09.731Z,27.24
2018-09-12T07:21:39.226Z,27.64
2018-09-12T07:24:08.148Z,28.02
2018-09-12T07:26:37.273Z,28.32
2018-09-12T07:29:06.798Z,27.99
2018-09-12T07:31:35.687Z,28.58
2018-09-12T07:34:04.773Z,29.17
2018-09-12T07:36:33.558Z,28.99
2018-09-12T07:39:02.475Z,29.10
2018-09-12T07:41:31.967Z,28.71
2018-09-12T07:44:01.083Z,28.71
2018-09-12T07:46:29.699Z,29.23
2018-09-12T07:48:58.382Z,29.62
2018-09-12T07:51:27.157Z,29.97
2018-09-12T07:53:55.824Z,30.33
2018-09-12T07:56:24.572Z,29.80
2018-09-12T07:58:53.633Z,30.56
2018-09-12T08:01:22.556Z,32.14
2018-09-12T08:03:51.566Z,32.53
2018-09-12T08:06:20.468Z,32.21
2018-09-12T08:08:49.245Z,31.99
2018-09-12T08:11:18.145Z,32.38
2018-09-12T08:13:48.233Z,32.90
2018-09-12T08:16:16.879Z,33.42
2018-09-12T08:18:46.369Z,33.79
2018-09-12T08:21:15.268Z,33.88
2018-09-12T08:23:44.677Z,33.73
2018-09-12T08:26:13.845Z,33.81
2018-09-12T08:28:42.739Z,34.61
2018-09-12T08:31:12.119Z,35.03
2018-09-12T08:33:41.598Z,34.77
2018-09-12T08:36:10.667Z,34.51
2018-09-12T08:38:39.509Z,35.72
2018-09-12T08:41:08.220Z,36.17
2018-09-12T08:43:36.999Z,36.58
2018-09-12T08:46:06.394Z,36.35
2018-09-12T08:48:35.053Z,36.53
2018-09-12T08:51:03.727Z,35.90
2018-09-12T08:53:33.244Z,36.18
2018-09-12T08:56:02.529Z,37.28
2018-09-12T08:58:31.348Z,38.03
2018-09-12T09:01:00.090Z,37.63
2018-09-12T09:03:29.212Z,38.17
2018-09-12T09:05:58.043Z,38.35
2018-09-12T09:08:27.549Z,38.41
2018-09-12T09:10:57.004Z,39.13
2018-09-12T09:13:25.912Z,39.73
2018-09-12T09:15:54.560Z,40.62
2018-09-12T09:18:23.479Z,39.97
2018-09-12T09:20:52.182Z,40.58
2018-09-12T09:23:20.999Z,41.17
2018-09-12T09:25:50.227Z,40.80
2018-09-12T09:28:19.415Z,41.79
2018-09-12T09:30:48.663Z,42.20
2018-09-12T09:33:17.568Z,42.68
2018-09-12T09:35:47.400Z,43.64
2018-09-12T09:38:16.380Z,43.77
2018-09-12T09:40:45.763Z,44.32
2018-09-12T09:43:14.559Z,44.32
2018-09-12T09:45:44.245Z,43.82
2018-09-12T09:48:13.456Z,43.01
2018-09-12T09:50:42.445Z,43.62
2018-09-12T09:53:11.707Z,44.65
2018-09-12T09:55:40.883Z,45.30
2018-09-12T09:58:09.748Z,46.38
2018-09-12T10:00:44.294Z,46.85
2018-09-12T10:04:20.593Z,47.68
2018-09-12T10:06:54.483Z,47.47
2018-09-12T10:09:28.568Z,46.48
2018-09-12T10:11:57.966Z,47.25
2018-09-12T10:14:26.672Z,47.78
2018-09-12T10:16:55.567Z,46.51
2018-09-12T10:19:24.249Z,47.91
2018-09-12T10:21:53.193Z,48.28
2018-09-12T10:24:21.999Z,47.75
2018-09-12T10:26:50.703Z,47.60
2018-09-12T10:29:19.793Z,46.12
2018-09-12T10:31:49.820Z,46.57
2018-09-12T10:34:19.235Z,48.38
2018-09-12T10:36:48.324Z,48.06
2018-09-12T10:39:17.028Z,49.11
2018-09-12T10:41:45.890Z,49.09
2018-09-12T10:44:15.384Z,47.80
2018-09-12T10:46:44.039Z,48.51
2018-09-12T10:49:12.728Z,48.64
2018-09-12T10:51:41.486Z,49.29
2018-09-12T10:54:11.023Z,49.03
2018-09-12T10:56:40.528Z,49.02
2018-09-12T10:59:09.526Z,49.75
2018-09-12T11:01:38.403Z,49.42
2018-09-12T11:04:07.286Z,46.79
2018-09-12T11:06:36.097Z,49.47
2018-09-12T11:09:07.409Z,50.59
2018-09-12T11:11:36.912Z,50.87
2018-09-12T11:14:05.734Z,50.66
2018-09-12T11:16:34.593Z,51.69
2018-09-12T11:19:03.253Z,51.31
2018-09-12T11:21:32.066Z,49.77
2018-09-12T11:24:01.368Z,51.37
2018-09-12T11:26:29.954Z,50.69
2018-09-12T11:29:00.279Z,51.30
2018-09-12T11:31:29.456Z,50.42
2018-09-12T11:33:58.288Z,49.13
2018-09-12T11:36:26.928Z,49.55
2018-09-12T11:38:55.992Z,49.22
2018-09-12T11:41:26.073Z,49.88
2018-09-12T11:43:54.628Z,51.18
2018-09-12T11:46:23.386Z,51.53
2018-09-12T11:48:52.152Z,52.03
2018-09-12T11:51:21.224Z,51.33
2018-09-12T11:53:50.022Z,52.44
2018-09-12T11:56:18.728Z,51.98
2018-09-12T11:58:47.484Z,53.06
2018-09-12T12:01:16.194Z,51.57
2018-09-12T12:03:44.976Z,51.15
2018-09-12T12:06:14.646Z,50.59
2018-09-12T12:08:43.653Z,51.33
2018-09-12T12:11:12.823Z,49.80
2018-09-12T12:13:41.444Z,49.57
2018-09-12T12:16:10.424Z,50.75
2018-09-12T12:18:39.080Z,52.13
2018-09-12T12:21:07.945Z,49.95
2018-09-12T12:23:37.188Z,49.27
2018-09-12T12:26:06.378Z,49.97
2018-09-12T12:28:35.534Z,50.84
2018-09-12T12:31:04.479Z,50.19
2018-09-12T12:33:33.768Z,51.75
2018-09-12T12:36:03.229Z,51.56
2018-09-12T12:38:32.130Z,51.54
2018-09-12T12:41:00.944Z,49.78
2018-09-12T12:43:29.621Z,48.62
2018-09-12T12:45:59.212Z,49.96
2018-09-12T12:48:27.985Z,50.99
2018-09-12T12:50:56.930Z,50.10
2018-09-12T12:53:25.818Z,46.79
2018-09-12T12:55:54.800Z,45.12
2018-09-12T12:58:23.635Z,45.92
2018-09-12T13:00:53.458Z,47.34
2018-09-12T13:03:22.472Z,48.49
2018-09-12T13:05:51.305Z,49.32
2018-09-12T13:08:20.221Z,49.10
2018-09-12T13:10:49.066Z,48.58
2018-09-12T13:13:17.899Z,47.12
2018-09-12T13:15:47.039Z,44.99
2018-09-12T13:18:16.003Z,43.89
2018-09-12T13:20:44.644Z,44.77
2018-09-12T13:23:13.676Z,46.08
2018-09-12T13:25:42.725Z,48.01
2018-09-12T13:28:12.036Z,48.44
2018-09-12T13:30:41.239Z,47.76
2018-09-12T13:33:10.115Z,49.12
2018-09-12T13:35:38.763Z,49.36
2018-09-12T13:38:08.083Z,50.12
2018-09-12T13:40:37.175Z,49.26
2018-09-12T13:43:06.346Z,48.25
2018-09-12T13:45:35.628Z,48.53
2018-09-12T13:48:04.450Z,48.87
2018-09-12T13:50:33.190Z,47.79
2018-09-12T13:53:01.945Z,46.25
2018-09-12T13:55:30.618Z,44.22
2018-09-12T13:57:59.395Z,41.87
2018-09-12T14:00:31.010Z,40.17
2018-09-12T14:03:02.103Z,40.43
2018-09-12T14:05:31.444Z,39.90
2018-09-12T14:08:00.758Z,39.33
2018-09-12T14:10:29.393Z,39.10
2018-09-12T14:12:59.035Z,38.90
2018-09-12T14:15:28.224Z,39.10
2018-09-12T14:17:57.628Z,38.15
2018-09-12T14:20:26.470Z,37.98
2018-09-12T14:22:55.328Z,37.20
2018-09-12T14:25:24.264Z,37.16
2018-09-12T14:27:53.729Z,37.04
2018-09-12T14:30:22.711Z,36.90
2018-09-12T14:32:51.544Z,36.57
2018-09-12T14:35:21.119Z,36.32
2018-09-12T14:37:49.920Z,36.01
2018-09-12T14:40:18.719Z,35.71
2018-09-12T14:42:47.380Z,35.67
2018-09-12T14:45:16.159Z,35.13
2018-09-12T14:47:45.150Z,34.77
2018-09-12T14:50:14.059Z,34.40
2018-09-12T14:52:42.940Z,34.25
2018-09-12T14:55:12.096Z,34.30
2018-09-12T14:57:41.001Z,34.21
2018-09-12T15:00:09.985Z,33.98
2018-09-12T15:02:39.498Z,33.88
2018-09-12T15:05:09.090Z,33.78
2018-09-12T15:07:38.004Z,33.53
2018-09-12T15:10:07.215Z,33.45
2018-09-12T15:12:36.146Z,33.48
2018-09-12T15:15:05.060Z,33.30
2018-09-12T15:17:34.008Z,33.26
2018-09-12T15:20:02.910Z,33.31
2018-09-12T15:22:31.804Z,33.36
2018-09-12T15:25:00.580Z,33.35
2018-09-12T15:27:29.827Z,33.30
2018-09-12T15:29:59.055Z,33.11
2018-09-12T15:32:28.530Z,33.00
2018-09-12T15:34:57.584Z,32.98
2018-09-12T15:37:26.714Z,32.78
2018-09-12T15:39:55.426Z,32.57
2018-09-12T15:42:24.318Z,32.43
2018-09-12T15:44:53.478Z,32.42
2018-09-12T15:47:22.764Z,32.35
2018-09-12T15:49:51.769Z,32.25
2018-09-12T15:52:20.627Z,32.11
2018-09-12T15:54:49.448Z,32.04
2018-09-12T15:57:18.260Z,31.85
2018-09-12T15:59:46.884Z,31.65
2018-09-12T16:02:16.024Z,31.55
2018-09-12T16:04:44.833Z,31.40
2018-09-12T16:07:13.626Z,31.44
2018-09-12T16:09:42.348Z,31.32
2018-09-12T16:12:10.992Z,31.32
2018-09-12T16:14:40.420Z,31.11
2018-09-12T16:17:09.084Z,30.99
2018-09-12T16:19:37.800Z,31.01
2018-09-12T16:22:06.922Z,30.90
2018-09-12T16:24:35.997Z,30.90
2018-09-12T16:27:04.911Z,30.93
2018-09-12T16:29:33.685Z,30.89
2018-09-12T16:32:02.774Z,30.58
2018-09-12T16:34:31.461Z,30.44
2018-09-12T16:37:00.294Z,30.17
2018-09-12T16:39:29.187Z,30.04
2018-09-12T16:41:58.694Z,29.90
2018-09-12T16:44:27.595Z,29.51
2018-09-12T16:46:56.411Z,29.21
2018-09-12T16:49:25.347Z,29.06
2018-09-12T16:51:54.600Z,28.97
2018-09-12T16:54:23.515Z,28.89
2018-09-12T16:56:53.321Z,28.68
2018-09-12T16:59:23.222Z,28.58
2018-09-12T17:01:52.599Z,28.45
2018-09-12T17:04:21.654Z,28.26
2018-09-12T17:06:50.866Z,28.12
2018-09-12T17:09:19.988Z,28.03
2018-09-12T17:11:48.799Z,27.90
2018-09-12T17:14:17.715Z,27.79
2018-09-12T17:16:46.861Z,27.66
2018-09-12T17:19:15.708Z,27.45
2018-09-12T17:21:44.595Z,27.31
2018-09-12T17:24:13.615Z,27.21
2018-09-12T17:26:42.376Z,26.90
2018-09-12T17:29:11.054Z,26.80
2018-09-12T17:31:39.881Z,26.76
2018-09-12T17:34:08.701Z,26.70
2018-09-12T17:36:38.678Z,26.59
2018-09-12T17:39:08.647Z,26.59
2018-09-12T17:41:38.167Z,26.47
2018-09-12T17:44:07.385Z,26.27
2018-09-12T17:46:36.386Z,26.14
2018-09-12T17:49:05.837Z,26.03
2018-09-12T17:51:35.146Z,25.93
2018-09-12T17:54:04.250Z,25.64
2018-09-12T17:56:33.141Z,25.41
2018-09-12T17:59:02.671Z,25.20
2018-09-12T18:01:32.397Z,25.14
2018-09-12T18:04:01.893Z,24.98
2018-09-12T18:06:31.477Z,24.98
2018-09-12T18:09:00.791Z,24.89
2018-09-12T18:11:29.677Z,24.54
2018-09-12T18:13:58.857Z,24.28
2018-09-12T18:16:28.187Z,24.03
2018-09-12T18:18:57.525Z,23.90
2018-09-12T18:21:26.856Z,23.80
2018-09-12T18:23:56.237Z,23.85
2018-09-12T18:26:25.208Z,23.62
2018-09-12T18:28:54.349Z,23.35
2018-09-12T18:31:24.296Z,23.28
2018-09-12T18:33:53.952Z,23.20
2018-09-12T18:36:23.184Z,23.21
2018-09-12T18:38:52.950Z,23.21
2018-09-12T18:41:22.514Z,23.17
2018-09-12T18:43:52.158Z,22.96
2018-09-12T18:46:21.169Z,22.77
2018-09-12T18:48:50.077Z,22.76
2018-09-12T18:51:20.027Z,22.74
2018-09-12T18:53:50.405Z,22.52
2018-09-12T18:56:20.575Z,22.27
2018-09-12T18:58:50.938Z,22.07
2018-09-12T19:01:20.631Z,21.84
2018-09-12T19:03:50.384Z,21.86
2018-09-12T19:06:19.634Z,21.80
2018-09-12T19:08:49.007Z,21.73
2018-09-12T19:11:17.908Z,21.75
2018-09-12T19:13:46.879Z,21.73
2018-09-12T19:16:16.440Z,21.62
2018-09-12T19:18:45.509Z,21.54
2018-09-12T19:21:14.959Z,21.54
2018-09-12T19:23:44.859Z,21.25
2018-09-12T19:26:14.287Z,21.19
2018-09-12T19:28:42.951Z,21.21
2018-09-12T19:31:12.441Z,21.20
2018-09-12T19:33:41.272Z,20.92
2018-09-12T19:36:10.068Z,20.90
2018-09-12T19:38:39.336Z,20.79
2018-09-12T19:41:09.286Z,20.82
2018-09-12T19:43:39.197Z,20.66
2018-09-12T19:46:08.130Z,20.38
2018-09-12T19:48:37.357Z,20.33
2018-09-12T19:51:11.361Z,20.49
2018-09-12T19:53:40.566Z,20.65
2018-09-12T19:56:10.752Z,20.79
2018-09-12T19:58:39.828Z,20.68
2018-09-12T20:01:09.092Z,20.62
2018-09-12T20:03:38.640Z,20.47
2018-09-12T20:06:07.837Z,20.41
2018-09-12T20:08:36.945Z,20.38
2018-09-12T20:11:06.156Z,20.27
2018-09-12T20:13:35.712Z,20.35
2018-09-12T20:16:04.956Z,20.61
2018-09-12T20:18:34.026Z,20.82
2018-09-12T20:21:02.973Z,21.05
2018-09-12T20:23:32.412Z,21.24
2018-09-12T20:26:01.328Z,21.45
2018-09-12T20:28:31.738Z,21.57
2018-09-12T20:31:01.796Z,21.68
2018-09-12T20:33:30.597Z,21.84
2018-09-12T20:35:59.302Z,22.00
2018-09-12T20:38:28.117Z,22.07
2018-09-12T20:40:57.750Z,22.01
2018-09-12T20:43:26.512Z,21.87
2018-09-12T20:45:56.199Z,21.74
2018-09-12T20:48:25.365Z,21.59
2018-09-12T20:50:54.235Z,21.41
2018-09-12T20:53:23.175Z,21.27
2018-09-12T20:55:52.192Z,21.23
2018-09-12T20:58:21.201Z,21.22
2018-09-12T21:00:50.396Z,21.15
2018-09-12T21:03:19.976Z,21.13
2018-09-12T21:05:49.521Z,21.19
2018-09-12T21:11:50.009Z,21.16
2018-09-12T21:14:19.151Z,21.05
2018-09-12T21:16:48.341Z,21.19
2018-09-12T21:19:17.281Z,21.28
2018-09-12T21:21:46.686Z,21.29
2018-09-12T21:24:15.959Z,21.25
2018-09-12T21:26:44.983Z,21.19
2018-09-12T21:29:14.648Z,21.12
2018-09-12T21:31:43.645Z,21.04
2018-09-12T21:34:12.437Z,21.01
2018-09-12T21:36:41.143Z,20.90
2018-09-12T21:39:10.867Z,20.94
2018-09-12T21:41:39.686Z,20.91
2018-09-12T21:44:08.616Z,20.87
2018-09-12T21:46:37.620Z,20.85
2018-09-12T21:49:07.212Z,20.87
2018-09-12T21:51:36.376Z,20.86
2018-09-12T21:54:05.610Z,20.86
2018-09-12T21:56:34.767Z,20.85
2018-09-12T21:59:03.676Z,20.72
2018-09-12T22:01:33.328Z,20.65
2018-09-12T22:04:02.039Z,20.60
2018-09-12T22:06:30.877Z,20.48
2018-09-12T22:08:59.656Z,20.43
2018-09-12T22:11:28.346Z,20.39
2018-09-12T22:13:56.971Z,20.17
2018-09-12T22:16:25.688Z,20.10
2018-09-12T22:18:54.864Z,20.06
2018-09-12T22:21:23.696Z,20.06
2018-09-12T22:23:53.368Z,19.98
2018-09-12T22:26:22.217Z,19.72
2018-09-12T22:28:51.407Z,19.64
2018-09-12T22:31:20.244Z,19.67
2018-09-12T22:33:50.128Z,19.65
2018-09-12T22:36:19.013Z,19.44
2018-09-12T22:38:48.438Z,19.34
2018-09-12T22:41:17.908Z,19.26
2018-09-12T22:43:47.107Z,19.23
2018-09-12T22:46:15.902Z,19.21
2018-09-12T22:48:45.472Z,19.17
2018-09-12T22:51:14.903Z,19.19
2018-09-12T22:53:43.824Z,19.18
2018-09-12T22:56:12.853Z,19.18
2018-09-12T22:58:41.519Z,19.16
2018-09-12T23:01:10.916Z,19.01
2018-09-12T23:03:39.542Z,18.96
2018-09-12T23:06:09.123Z,18.91
2018-09-12T23:08:39.085Z,18.89
2018-09-12T23:11:07.676Z,18.76
2018-09-12T23:13:36.452Z,18.65
2018-09-12T23:16:05.218Z,18.57
2018-09-12T23:18:35.069Z,18.42
2018-09-12T23:21:04.356Z,18.32
2018-09-12T23:23:33.594Z,18.25
2018-09-12T23:26:02.817Z,18.32
2018-09-12T23:28:31.798Z,18.21
2018-09-12T23:31:01.321Z,18.02
2018-09-12T23:33:30.514Z,18.00
2018-09-12T23:35:59.834Z,18.01
2018-09-12T23:38:28.621Z,18.07
2018-09-12T23:40:57.256Z,17.92
2018-09-12T23:43:25.861Z,17.87
2018-09-12T23:45:54.642Z,17.88
2018-09-12T23:48:24.888Z,17.84
2018-09-12T23:50:53.993Z,17.78
2018-09-12T23:53:22.706Z,17.83
2018-09-12T23:55:51.652Z,17.83
2018-09-12T23:58:20.467Z,17.88
